sensor_id;sensor_type;location;lat;lon;timestamp;temperature;humidity
18712;DHT22;9485;49.386;8.674;2022-08-19T00:01:04;24.70;57.10
18712;DHT22;9485;49.386;8.674;2022-08-19T00:06:25;24.70;57.20
18712;DHT22;9485;49.386;8.674;2022-08-19T00:11:48;24.70;57.30
18712;DHT22;9485;49.386;8.674;2022-08-19T00:17:09;24.70;57.30
18712;DHT22;9485;49.386;8.674;2022-08-19T00:22:30;24.70;57.40
18712;DHT22;9485;49.386;8.674;2022-08-19T00:27:53;24.70;57.50
18712;DHT22;9485;49.386;8.674;2022-08-19T00:33:13;24.70;57.60
18712;DHT22;9485;49.386;8.674;2022-08-19T00:38:37;24.60;57.60
18712;DHT22;9485;49.386;8.674;2022-08-19T00:44:06;24.60;57.70
18712;DHT22;9485;49.386;8.674;2022-08-19T00:49:31;24.60;57.80
18712;DHT22;9485;49.386;8.674;2022-08-19T00:54:56;24.60;57.90
18712;DHT22;9485;49.386;8.674;2022-08-19T01:00:20;24.60;58.00
18712;DHT22;9485;49.386;8.674;2022-08-19T01:05:43;24.60;58.20
18712;DHT22;9485;49.386;8.674;2022-08-19T01:11:06;24.60;58.10
18712;DHT22;9485;49.386;8.674;2022-08-19T01:16:31;24.60;58.00
18712;DHT22;9485;49.386;8.674;2022-08-19T01:21:59;24.50;58.20
18712;DHT22;9485;49.386;8.674;2022-08-19T01:27:24;24.50;58.30
18712;DHT22;9485;49.386;8.674;2022-08-19T01:32:45;24.50;58.40
18712;DHT22;9485;49.386;8.674;2022-08-19T01:38:07;24.40;58.40
18712;DHT22;9485;49.386;8.674;2022-08-19T01:43:31;24.40;58.40
18712;DHT22;9485;49.386;8.674;2022-08-19T01:48:52;24.30;58.50
18712;DHT22;9485;49.386;8.674;2022-08-19T01:54:14;24.30;58.50
18712;DHT22;9485;49.386;8.674;2022-08-19T01:59:39;24.20;58.60
18712;DHT22;9485;49.386;8.674;2022-08-19T02:05:01;24.20;58.70
18712;DHT22;9485;49.386;8.674;2022-08-19T02:10:22;24.20;58.90
18712;DHT22;9485;49.386;8.674;2022-08-19T02:15:44;24.20;59.00
18712;DHT22;9485;49.386;8.674;2022-08-19T02:21:05;24.30;59.10
18712;DHT22;9485;49.386;8.674;2022-08-19T02:26:26;24.30;59.20
18712;DHT22;9485;49.386;8.674;2022-08-19T02:31:48;24.30;59.30
18712;DHT22;9485;49.386;8.674;2022-08-19T02:37:09;24.30;59.40
18712;DHT22;9485;49.386;8.674;2022-08-19T02:42:50;24.30;59.30
18712;DHT22;9485;49.386;8.674;2022-08-19T02:48:12;24.30;59.30
18712;DHT22;9485;49.386;8.674;2022-08-19T02:53:32;24.30;59.50
18712;DHT22;9485;49.386;8.674;2022-08-19T02:58:54;24.20;59.60
18712;DHT22;9485;49.386;8.674;2022-08-19T03:04:17;24.20;59.70
18712;DHT22;9485;49.386;8.674;2022-08-19T03:09:38;24.20;59.80
18712;DHT22;9485;49.386;8.674;2022-08-19T03:14:58;24.10;59.80
18712;DHT22;9485;49.386;8.674;2022-08-19T03:20:21;24.10;59.80
18712;DHT22;9485;49.386;8.674;2022-08-19T03:25:43;24.00;59.90
18712;DHT22;9485;49.386;8.674;2022-08-19T03:31:07;24.00;60.60
18712;DHT22;9485;49.386;8.674;2022-08-19T03:36:32;24.00;60.00
18712;DHT22;9485;49.386;8.674;2022-08-19T03:41:54;23.90;60.10
18712;DHT22;9485;49.386;8.674;2022-08-19T03:47:15;23.90;60.00
18712;DHT22;9485;49.386;8.674;2022-08-19T03:52:37;23.80;59.90
18712;DHT22;9485;49.386;8.674;2022-08-19T03:57:58;23.70;59.90
18712;DHT22;9485;49.386;8.674;2022-08-19T04:03:19;23.60;60.20
18712;DHT22;9485;49.386;8.674;2022-08-19T04:08:42;23.50;60.10
18712;DHT22;9485;49.386;8.674;2022-08-19T04:14:04;23.50;60.40
18712;DHT22;9485;49.386;8.674;2022-08-19T04:19:25;23.40;60.40
18712;DHT22;9485;49.386;8.674;2022-08-19T04:24:47;23.30;60.50
18712;DHT22;9485;49.386;8.674;2022-08-19T04:30:09;23.30;60.60
18712;DHT22;9485;49.386;8.674;2022-08-19T04:35:34;23.30;60.60
18712;DHT22;9485;49.386;8.674;2022-08-19T04:40:58;23.30;60.90
18712;DHT22;9485;49.386;8.674;2022-08-19T04:46:36;23.20;60.80
18712;DHT22;9485;49.386;8.674;2022-08-19T04:51:57;23.20;60.80
18712;DHT22;9485;49.386;8.674;2022-08-19T04:57:19;23.20;60.90
18712;DHT22;9485;49.386;8.674;2022-08-19T05:02:40;23.20;61.10
18712;DHT22;9485;49.386;8.674;2022-08-19T05:08:00;23.30;61.20
18712;DHT22;9485;49.386;8.674;2022-08-19T05:13:22;23.20;61.20
18712;DHT22;9485;49.386;8.674;2022-08-19T05:18:43;23.20;61.30
18712;DHT22;9485;49.386;8.674;2022-08-19T05:24:23;23.20;61.40
18712;DHT22;9485;49.386;8.674;2022-08-19T05:29:46;23.20;61.50
18712;DHT22;9485;49.386;8.674;2022-08-19T05:35:07;23.30;61.60
18712;DHT22;9485;49.386;8.674;2022-08-19T05:40:28;23.30;61.80
18712;DHT22;9485;49.386;8.674;2022-08-19T05:45:50;23.40;61.70
18712;DHT22;9485;49.386;8.674;2022-08-19T05:51:11;23.40;61.80
18712;DHT22;9485;49.386;8.674;2022-08-19T05:56:32;23.50;61.80
18712;DHT22;9485;49.386;8.674;2022-08-19T06:01:56;23.60;61.90
18712;DHT22;9485;49.386;8.674;2022-08-19T06:07:17;23.70;62.50
18712;DHT22;9485;49.386;8.674;2022-08-19T06:12:38;23.80;61.60
18712;DHT22;9485;49.386;8.674;2022-08-19T06:18:00;23.90;61.40
18712;DHT22;9485;49.386;8.674;2022-08-19T06:23:21;24.00;61.30
18712;DHT22;9485;49.386;8.674;2022-08-19T06:28:42;24.00;61.30
18712;DHT22;9485;49.386;8.674;2022-08-19T06:34:06;24.10;61.20
18712;DHT22;9485;49.386;8.674;2022-08-19T06:39:29;24.30;61.10
18712;DHT22;9485;49.386;8.674;2022-08-19T06:44:51;24.40;60.90
18712;DHT22;9485;49.386;8.674;2022-08-19T06:50:13;24.50;60.60
18712;DHT22;9485;49.386;8.674;2022-08-19T06:55:33;24.60;60.40
18712;DHT22;9485;49.386;8.674;2022-08-19T07:00:54;24.70;60.20
18712;DHT22;9485;49.386;8.674;2022-08-19T07:06:18;24.70;59.90
18712;DHT22;9485;49.386;8.674;2022-08-19T07:11:43;24.80;59.80
18712;DHT22;9485;49.386;8.674;2022-08-19T07:17:07;24.90;59.80
18712;DHT22;9485;49.386;8.674;2022-08-19T07:22:30;25.00;59.80
18712;DHT22;9485;49.386;8.674;2022-08-19T07:27:51;25.20;59.50
18712;DHT22;9485;49.386;8.674;2022-08-19T07:33:12;25.30;59.20
18712;DHT22;9485;49.386;8.674;2022-08-19T07:38:34;25.40;58.80
18712;DHT22;9485;49.386;8.674;2022-08-19T07:43:55;25.50;58.90
18712;DHT22;9485;49.386;8.674;2022-08-19T07:49:17;25.50;58.70
18712;DHT22;9485;49.386;8.674;2022-08-19T07:54:40;25.60;58.70
18712;DHT22;9485;49.386;8.674;2022-08-19T08:00:02;25.70;58.60
18712;DHT22;9485;49.386;8.674;2022-08-19T08:05:31;25.90;58.60
18712;DHT22;9485;49.386;8.674;2022-08-19T08:11:11;26.00;58.60
18712;DHT22;9485;49.386;8.674;2022-08-19T08:16:34;26.20;58.20
18712;DHT22;9485;49.386;8.674;2022-08-19T08:21:57;26.40;58.00
18712;DHT22;9485;49.386;8.674;2022-08-19T08:27:21;26.90;58.90
18712;DHT22;9485;49.386;8.674;2022-08-19T08:32:41;27.90;58.00
18712;DHT22;9485;49.386;8.674;2022-08-19T08:38:02;29.10;57.20
18712;DHT22;9485;49.386;8.674;2022-08-19T08:43:28;30.20;55.70
18712;DHT22;9485;49.386;8.674;2022-08-19T08:48:56;31.00;53.30
18712;DHT22;9485;49.386;8.674;2022-08-19T08:54:24;31.30;51.50
18712;DHT22;9485;49.386;8.674;2022-08-19T08:59:53;31.40;51.90
18712;DHT22;9485;49.386;8.674;2022-08-19T09:05:16;31.90;51.30
18712;DHT22;9485;49.386;8.674;2022-08-19T09:10:44;32.70;51.90
18712;DHT22;9485;49.386;8.674;2022-08-19T09:16:13;33.60;47.70
18712;DHT22;9485;49.386;8.674;2022-08-19T09:21:37;34.30;47.70
18712;DHT22;9485;49.386;8.674;2022-08-19T09:26:58;34.90;46.60
18712;DHT22;9485;49.386;8.674;2022-08-19T09:32:20;35.40;46.20
18712;DHT22;9485;49.386;8.674;2022-08-19T09:37:42;35.90;45.70
18712;DHT22;9485;49.386;8.674;2022-08-19T09:43:03;36.50;44.80
18712;DHT22;9485;49.386;8.674;2022-08-19T09:48:25;36.90;43.90
18712;DHT22;9485;49.386;8.674;2022-08-19T09:53:47;37.20;41.70
18712;DHT22;9485;49.386;8.674;2022-08-19T09:59:09;37.00;40.80
18712;DHT22;9485;49.386;8.674;2022-08-19T10:04:32;36.60;41.00
18712;DHT22;9485;49.386;8.674;2022-08-19T10:10:07;36.60;41.10
18712;DHT22;9485;49.386;8.674;2022-08-19T10:15:29;36.70;41.90
18712;DHT22;9485;49.386;8.674;2022-08-19T10:20:51;36.80;41.50
18712;DHT22;9485;49.386;8.674;2022-08-19T10:26:15;37.00;41.40
18712;DHT22;9485;49.386;8.674;2022-08-19T10:31:38;37.30;41.30
18712;DHT22;9485;49.386;8.674;2022-08-19T10:37:00;37.50;41.20
18712;DHT22;9485;49.386;8.674;2022-08-19T10:42:21;37.70;40.10
18712;DHT22;9485;49.386;8.674;2022-08-19T10:47:41;37.80;39.70
18712;DHT22;9485;49.386;8.674;2022-08-19T10:53:06;37.80;39.40
18712;DHT22;9485;49.386;8.674;2022-08-19T10:58:28;37.70;38.80
18712;DHT22;9485;49.386;8.674;2022-08-19T11:03:48;37.90;39.50
18712;DHT22;9485;49.386;8.674;2022-08-19T11:09:10;38.20;38.40
18712;DHT22;9485;49.386;8.674;2022-08-19T11:14:32;38.50;37.40
18712;DHT22;9485;49.386;8.674;2022-08-19T11:19:54;38.70;37.40
18712;DHT22;9485;49.386;8.674;2022-08-19T11:25:16;38.60;37.00
18712;DHT22;9485;49.386;8.674;2022-08-19T11:30:37;38.10;36.70
18712;DHT22;9485;49.386;8.674;2022-08-19T11:35:59;37.90;37.20
18712;DHT22;9485;49.386;8.674;2022-08-19T11:41:22;37.80;37.30
18712;DHT22;9485;49.386;8.674;2022-08-19T11:46:44;37.50;36.50
18712;DHT22;9485;49.386;8.674;2022-08-19T11:52:06;37.00;37.50
18712;DHT22;9485;49.386;8.674;2022-08-19T11:57:28;36.70;37.70
18712;DHT22;9485;49.386;8.674;2022-08-19T12:02:48;36.40;38.00
18712;DHT22;9485;49.386;8.674;2022-08-19T12:08:09;36.20;38.50
18712;DHT22;9485;49.386;8.674;2022-08-19T12:13:33;36.20;38.40
18712;DHT22;9485;49.386;8.674;2022-08-19T12:18:56;36.00;38.20
18712;DHT22;9485;49.386;8.674;2022-08-19T12:24:17;35.90;37.80
18712;DHT22;9485;49.386;8.674;2022-08-19T12:29:43;35.70;38.60
18712;DHT22;9485;49.386;8.674;2022-08-19T12:35:05;35.80;38.50
18712;DHT22;9485;49.386;8.674;2022-08-19T12:40:28;35.90;38.40
18712;DHT22;9485;49.386;8.674;2022-08-19T12:45:51;35.80;37.90
18712;DHT22;9485;49.386;8.674;2022-08-19T12:51:13;35.50;37.80
18712;DHT22;9485;49.386;8.674;2022-08-19T12:56:36;35.10;38.60
18712;DHT22;9485;49.386;8.674;2022-08-19T13:01:58;35.10;39.40
18712;DHT22;9485;49.386;8.674;2022-08-19T13:07:19;35.50;39.00
18712;DHT22;9485;49.386;8.674;2022-08-19T13:12:39;35.70;38.20
18712;DHT22;9485;49.386;8.674;2022-08-19T13:18:02;35.60;37.70
18712;DHT22;9485;49.386;8.674;2022-08-19T13:23:23;35.40;37.60
18712;DHT22;9485;49.386;8.674;2022-08-19T13:28:44;35.10;37.90
18712;DHT22;9485;49.386;8.674;2022-08-19T13:34:29;34.80;38.40
18712;DHT22;9485;49.386;8.674;2022-08-19T13:39:52;35.10;37.90
18712;DHT22;9485;49.386;8.674;2022-08-19T13:45:14;35.30;38.60
18712;DHT22;9485;49.386;8.674;2022-08-19T13:50:40;35.70;38.30
18712;DHT22;9485;49.386;8.674;2022-08-19T13:56:05;35.90;36.90
18712;DHT22;9485;49.386;8.674;2022-08-19T14:01:26;36.00;36.80
18712;DHT22;9485;49.386;8.674;2022-08-19T14:06:48;36.00;37.10
18712;DHT22;9485;49.386;8.674;2022-08-19T14:12:09;35.90;36.20
18712;DHT22;9485;49.386;8.674;2022-08-19T14:17:29;35.80;36.40
18712;DHT22;9485;49.386;8.674;2022-08-19T14:22:53;36.00;37.10
18712;DHT22;9485;49.386;8.674;2022-08-19T14:28:13;36.10;36.10
18712;DHT22;9485;49.386;8.674;2022-08-19T14:33:35;36.10;36.00
18712;DHT22;9485;49.386;8.674;2022-08-19T14:38:57;36.20;36.00
18712;DHT22;9485;49.386;8.674;2022-08-19T14:44:19;36.20;34.70
18712;DHT22;9485;49.386;8.674;2022-08-19T14:49:41;36.00;34.30
18712;DHT22;9485;49.386;8.674;2022-08-19T14:55:05;35.90;33.80
18712;DHT22;9485;49.386;8.674;2022-08-19T15:00:26;35.70;33.80
18712;DHT22;9485;49.386;8.674;2022-08-19T15:05:47;35.60;34.20
18712;DHT22;9485;49.386;8.674;2022-08-19T15:11:10;35.50;33.90
18712;DHT22;9485;49.386;8.674;2022-08-19T15:16:33;35.30;33.10
18712;DHT22;9485;49.386;8.674;2022-08-19T15:21:54;35.00;33.60
18712;DHT22;9485;49.386;8.674;2022-08-19T15:27:16;34.70;33.90
18712;DHT22;9485;49.386;8.674;2022-08-19T15:32:38;34.50;34.00
18712;DHT22;9485;49.386;8.674;2022-08-19T15:37:59;34.20;34.20
18712;DHT22;9485;49.386;8.674;2022-08-19T15:43:21;33.90;34.80
18712;DHT22;9485;49.386;8.674;2022-08-19T15:48:41;33.70;34.50
18712;DHT22;9485;49.386;8.674;2022-08-19T15:54:04;33.50;35.00
18712;DHT22;9485;49.386;8.674;2022-08-19T15:59:28;33.30;35.60
18712;DHT22;9485;49.386;8.674;2022-08-19T16:05:09;33.20;35.10
18712;DHT22;9485;49.386;8.674;2022-08-19T16:10:49;33.00;35.20
18712;DHT22;9485;49.386;8.674;2022-08-19T16:16:11;32.90;35.00
18712;DHT22;9485;49.386;8.674;2022-08-19T16:21:33;32.70;35.10
18712;DHT22;9485;49.386;8.674;2022-08-19T16:26:55;32.60;35.40
18712;DHT22;9485;49.386;8.674;2022-08-19T16:32:18;32.50;35.30
18712;DHT22;9485;49.386;8.674;2022-08-19T16:37:39;32.40;35.20
18712;DHT22;9485;49.386;8.674;2022-08-19T16:43:00;32.30;35.40
18712;DHT22;9485;49.386;8.674;2022-08-19T16:48:29;32.20;35.30
18712;DHT22;9485;49.386;8.674;2022-08-19T16:53:53;32.10;35.20
18712;DHT22;9485;49.386;8.674;2022-08-19T16:59:14;32.00;35.50
18712;DHT22;9485;49.386;8.674;2022-08-19T17:04:36;31.90;35.60
18712;DHT22;9485;49.386;8.674;2022-08-19T17:09:56;31.90;35.70
18712;DHT22;9485;49.386;8.674;2022-08-19T17:15:17;31.80;35.20
18712;DHT22;9485;49.386;8.674;2022-08-19T17:20:40;31.80;35.50
18712;DHT22;9485;49.386;8.674;2022-08-19T17:26:03;31.70;35.40
18712;DHT22;9485;49.386;8.674;2022-08-19T17:31:26;31.60;35.50
18712;DHT22;9485;49.386;8.674;2022-08-19T17:36:50;31.50;35.60
18712;DHT22;9485;49.386;8.674;2022-08-19T17:42:11;31.40;35.60
18712;DHT22;9485;49.386;8.674;2022-08-19T17:47:31;31.30;35.90
18712;DHT22;9485;49.386;8.674;2022-08-19T17:52:53;31.20;35.80
18712;DHT22;9485;49.386;8.674;2022-08-19T17:58:14;31.10;36.20
18712;DHT22;9485;49.386;8.674;2022-08-19T18:03:35;31.00;36.20
18712;DHT22;9485;49.386;8.674;2022-08-19T18:08:58;30.90;36.40
18712;DHT22;9485;49.386;8.674;2022-08-19T18:14:18;30.80;36.30
18712;DHT22;9485;49.386;8.674;2022-08-19T18:19:44;30.70;36.50
18712;DHT22;9485;49.386;8.674;2022-08-19T18:25:11;30.60;36.60
18712;DHT22;9485;49.386;8.674;2022-08-19T18:30:34;30.60;36.70
18712;DHT22;9485;49.386;8.674;2022-08-19T18:35:55;30.50;37.20
18712;DHT22;9485;49.386;8.674;2022-08-19T18:41:18;30.40;37.60
18712;DHT22;9485;49.386;8.674;2022-08-19T18:47:10;30.30;37.80
18712;DHT22;9485;49.386;8.674;2022-08-19T18:52:50;30.20;38.10
18712;DHT22;9485;49.386;8.674;2022-08-19T18:58:12;30.00;38.40
18712;DHT22;9485;49.386;8.674;2022-08-19T19:03:33;29.90;38.80
18712;DHT22;9485;49.386;8.674;2022-08-19T19:08:53;29.80;39.80
18712;DHT22;9485;49.386;8.674;2022-08-19T19:14:19;29.70;39.10
18712;DHT22;9485;49.386;8.674;2022-08-19T19:19:42;29.60;39.50
18712;DHT22;9485;49.386;8.674;2022-08-19T19:25:04;29.40;39.70
18712;DHT22;9485;49.386;8.674;2022-08-19T19:30:27;29.30;39.90
18712;DHT22;9485;49.386;8.674;2022-08-19T19:35:50;29.20;40.20
18712;DHT22;9485;49.386;8.674;2022-08-19T19:41:11;29.10;40.10
18712;DHT22;9485;49.386;8.674;2022-08-19T19:46:34;28.90;40.10
18712;DHT22;9485;49.386;8.674;2022-08-19T19:51:55;28.70;40.50
18712;DHT22;9485;49.386;8.674;2022-08-19T19:57:17;28.60;40.70
18712;DHT22;9485;49.386;8.674;2022-08-19T20:02:39;28.40;40.90
18712;DHT22;9485;49.386;8.674;2022-08-19T20:07:59;28.30;41.10
18712;DHT22;9485;49.386;8.674;2022-08-19T20:13:38;28.20;41.20
18712;DHT22;9485;49.386;8.674;2022-08-19T20:19:00;28.00;41.30
18712;DHT22;9485;49.386;8.674;2022-08-19T20:24:23;27.90;41.70
18712;DHT22;9485;49.386;8.674;2022-08-19T20:29:45;27.80;41.60
18712;DHT22;9485;49.386;8.674;2022-08-19T20:35:08;27.60;41.70
18712;DHT22;9485;49.386;8.674;2022-08-19T20:40:30;27.60;42.00
18712;DHT22;9485;49.386;8.674;2022-08-19T20:45:52;27.50;41.90
18712;DHT22;9485;49.386;8.674;2022-08-19T20:51:15;27.40;41.90
18712;DHT22;9485;49.386;8.674;2022-08-19T20:56:36;27.30;42.00
18712;DHT22;9485;49.386;8.674;2022-08-19T21:01:56;27.30;42.00
18712;DHT22;9485;49.386;8.674;2022-08-19T21:07:19;27.20;42.10
18712;DHT22;9485;49.386;8.674;2022-08-19T21:12:41;27.20;42.20
18712;DHT22;9485;49.386;8.674;2022-08-19T21:18:02;27.10;42.10
18712;DHT22;9485;49.386;8.674;2022-08-19T21:23:26;27.00;42.10
18712;DHT22;9485;49.386;8.674;2022-08-19T21:28:49;26.90;42.20
18712;DHT22;9485;49.386;8.674;2022-08-19T21:34:09;26.80;42.10
18712;DHT22;9485;49.386;8.674;2022-08-19T21:39:31;26.80;42.20
18712;DHT22;9485;49.386;8.674;2022-08-19T21:44:52;26.70;42.40
18712;DHT22;9485;49.386;8.674;2022-08-19T21:50:12;26.60;42.40
18712;DHT22;9485;49.386;8.674;2022-08-19T21:56:00;26.40;42.50
18712;DHT22;9485;49.386;8.674;2022-08-19T22:01:20;26.30;42.70
18712;DHT22;9485;49.386;8.674;2022-08-19T22:06:41;26.20;42.80
18712;DHT22;9485;49.386;8.674;2022-08-19T22:12:03;26.10;43.00
18712;DHT22;9485;49.386;8.674;2022-08-19T22:17:26;25.90;43.30
18712;DHT22;9485;49.386;8.674;2022-08-19T22:22:49;25.80;43.50
18712;DHT22;9485;49.386;8.674;2022-08-19T22:28:15;25.70;43.60
18712;DHT22;9485;49.386;8.674;2022-08-19T22:33:37;25.50;44.60
18712;DHT22;9485;49.386;8.674;2022-08-19T22:38:57;25.40;44.00
18712;DHT22;9485;49.386;8.674;2022-08-19T22:44:20;25.30;44.20
18712;DHT22;9485;49.386;8.674;2022-08-19T22:49:41;25.20;44.40
18712;DHT22;9485;49.386;8.674;2022-08-19T22:55:04;25.10;44.50
18712;DHT22;9485;49.386;8.674;2022-08-19T23:00:27;25.00;44.70
18712;DHT22;9485;49.386;8.674;2022-08-19T23:05:48;24.80;44.80
18712;DHT22;9485;49.386;8.674;2022-08-19T23:11:10;24.70;44.90
18712;DHT22;9485;49.386;8.674;2022-08-19T23:16:32;24.60;45.10
18712;DHT22;9485;49.386;8.674;2022-08-19T23:21:54;24.50;45.50
18712;DHT22;9485;49.386;8.674;2022-08-19T23:27:14;24.40;45.50
18712;DHT22;9485;49.386;8.674;2022-08-19T23:33:01;24.40;45.70
18712;DHT22;9485;49.386;8.674;2022-08-19T23:38:26;24.30;46.20
18712;DHT22;9485;49.386;8.674;2022-08-19T23:43:48;24.30;46.30
18712;DHT22;9485;49.386;8.674;2022-08-19T23:49:11;24.20;46.40
18712;DHT22;9485;49.386;8.674;2022-08-19T23:54:33;24.10;46.50
18712;DHT22;9485;49.386;8.674;2022-08-19T23:59:53;24.00;46.50
